Fowlstown, Georgia
Current Conditions -  °F | °C
As of 2:15 PM on Monday 20 Oct 2014 (Local Time) from KBGE Reporting Station
Scattered Clouds Scattered Clouds  
Wind Chill: 81°   Ceiling: Unl
Heat Index: 82°   Visibility: 10mi
Dew Point: 63°   Wind: 5mph
Humidity: 54%   Direction: 220°SW
Pressure: 30.01"   Gusts: NA
Location:  30.8°N, 84.55°W
Report Text: KBGE 201815Z AUTO 22004KT 10SM SCT037 SCT048 27/17 A3001 RMK AO2
Loading
Personal Weather Stations






























Interactive Weather Map
Tropical Storm Tracking
New forecast layout! Learn more

10-Day Weather Forecast

Advertisements
Track Severe Weather on mobile